Time;durP1;ratioP1;P1;durP2;ratioP2;P2;SDS_P1;SDS_P2;PMS_P1;PMS_P2;Temp;Humidity;BMP_temperature;BMP_pressure;BME280_temperature;BME280_humidity;BME280_pressure;Samples;Min_cycle;Max_cycle;Signal;HPM_P1;HPM_P2
2021/03/20 00:00:32;;;;;;;13.45;7.68;;;;;;;-1.72;79.06;96155.97;5011853;28;20458;-45
2021/03/20 00:02:59;;;;;;;14.33;7.30;;;;;;;-1.75;79.23;96159.91;5016256;28;20062;-45
2021/03/20 00:05:26;;;;;;;11.82;6.93;;;;;;;-1.76;78.88;96165.44;5018593;28;20054;-46
2021/03/20 00:07:54;;;;;;;14.65;6.95;;;;;;;-1.72;78.47;96159.41;5014872;28;20188;-47
2021/03/20 00:10:23;;;;;;;12.13;7.70;;;;;;;-1.89;79.82;96164.75;5030867;28;20045;-46
2021/03/20 00:12:51;;;;;;;11.38;6.97;;;;;;;-1.76;78.81;96168.88;5022434;28;20057;-50
2021/03/20 00:15:22;;;;;;;12.43;7.93;;;;;;;-1.83;79.70;96162.19;4996243;28;20080;-44
2021/03/20 00:17:49;;;;;;;9.95;6.55;;;;;;;-1.91;78.66;96166.88;5014573;28;20046;-47
2021/03/20 00:20:21;;;;;;;10.02;6.55;;;;;;;-1.95;79.28;96168.44;5013559;28;20751;-45
2021/03/20 00:22:48;;;;;;;11.25;7.43;;;;;;;-1.97;79.09;96167.88;5033775;28;20045;-46
2021/03/20 00:25:14;;;;;;;11.10;6.75;;;;;;;-1.82;78.16;96169.91;5024184;28;20039;-45
2021/03/20 00:27:41;;;;;;;10.85;7.07;;;;;;;-1.93;78.24;96168.97;4992436;28;20058;-46
2021/03/20 00:30:08;;;;;;;11.35;7.22;;;;;;;-1.99;79.54;96169.16;5013012;28;20050;-46
2021/03/20 00:32:35;;;;;;;10.45;6.75;;;;;;;-1.97;78.80;96162.56;5013582;28;20081;-44
2021/03/20 00:35:05;;;;;;;11.63;6.93;;;;;;;-1.89;78.97;96172.72;4996125;28;20149;-44
2021/03/20 00:37:32;;;;;;;10.52;6.75;;;;;;;-2.06;78.89;96176.50;5013749;28;20061;-45
2021/03/20 00:39:58;;;;;;;11.70;7.45;;;;;;;-2.05;78.75;96181.53;5011424;28;20042;-45
2021/03/20 00:42:25;;;;;;;11.15;6.70;;;;;;;-2.07;79.06;96174.91;5016188;23;20486;-47
2021/03/20 00:44:51;;;;;;;10.57;6.43;;;;;;;-2.22;80.88;96176.28;5012335;28;20061;-47
2021/03/20 00:47:18;;;;;;;11.68;7.15;;;;;;;-1.99;78.62;96174.44;5010414;28;20060;-48
2021/03/20 00:49:45;;;;;;;12.30;6.40;;;;;;;-2.20;80.74;96173.41;5021968;28;20077;-45
2021/03/20 00:52:11;;;;;;;11.68;6.68;;;;;;;-2.07;78.87;96182.84;5007578;28;20167;-49
2021/03/20 00:54:38;;;;;;;11.00;6.40;;;;;;;-2.15;79.46;96192.81;5012467;28;20050;-50
2021/03/20 00:57:05;;;;;;;11.77;7.03;;;;;;;-2.22;79.76;96184.22;5012700;28;20495;-48
2021/03/20 00:59:31;;;;;;;12.10;6.80;;;;;;;-2.12;79.53;96183.56;5010489;28;20418;-47
2021/03/20 01:01:58;;;;;;;10.07;6.50;;;;;;;-2.22;79.21;96183.44;4992870;28;20050;-47
2021/03/20 01:04:25;;;;;;;11.50;6.80;;;;;;;-2.35;79.75;96182.72;4993009;28;20100;-48
2021/03/20 01:06:51;;;;;;;10.73;6.57;;;;;;;-2.53;80.94;96179.56;4998856;28;20053;-47
2021/03/20 01:09:26;;;;;;;10.52;6.50;;;;;;;-2.49;81.64;96181.47;5001654;28;20062;-47
2021/03/20 01:11:53;;;;;;;13.60;6.97;;;;;;;-2.41;81.55;96182.91;5008572;28;20054;-51
2021/03/20 01:14:19;;;;;;;11.35;7.20;;;;;;;-2.28;80.00;96179.91;5012554;28;20100;-46
2021/03/20 01:16:46;;;;;;;10.98;6.95;;;;;;;-2.39;79.50;96178.19;5012496;28;20427;-46
2021/03/20 01:19:13;;;;;;;10.13;6.47;;;;;;;-2.45;80.38;96187.09;5009414;28;20046;-47
2021/03/20 01:21:39;;;;;;;10.25;6.35;;;;;;;-2.35;79.96;96179.28;4998859;28;20054;-48
2021/03/20 01:24:06;;;;;;;10.57;6.32;;;;;;;-2.54;80.21;96175.31;4997826;28;20100;-47
2021/03/20 01:26:33;;;;;;;12.05;7.63;;;;;;;-2.25;79.93;96183.91;5011376;28;20050;-45
2021/03/20 01:28:59;;;;;;;12.90;7.63;;;;;;;-2.27;79.47;96176.22;5009520;28;20050;-51
2021/03/20 01:31:26;;;;;;;10.18;6.20;;;;;;;-2.58;80.39;96181.09;4992240;28;20057;-49
2021/03/20 01:33:52;;;;;;;11.88;7.45;;;;;;;-2.58;80.25;96178.44;5007520;28;20548;-44
2021/03/20 01:36:19;;;;;;;12.30;7.28;;;;;;;-2.46;80.43;96182.84;5012219;28;20061;-45
2021/03/20 01:38:45;;;;;;;12.73;7.25;;;;;;;-2.57;81.10;96176.59;4994024;28;20102;-49
2021/03/20 01:41:18;;;;;;;11.07;6.90;;;;;;;-2.52;80.25;96179.31;4992242;28;20100;-47
2021/03/20 01:43:45;;;;;;;12.35;7.15;;;;;;;-2.54;80.39;96188.53;4998116;28;20137;-46
2021/03/20 01:46:52;;;;;;;12.48;7.25;;;;;;;-2.67;80.77;96190.47;5006319;28;20112;-48
2021/03/20 01:49:21;;;;;;;12.98;7.78;;;;;;;-2.56;80.65;96186.16;4970015;28;20137;-47
2021/03/20 01:52:12;;;;;;;12.38;7.70;;;;;;;-2.70;80.90;96179.56;4990833;28;20427;-48
2021/03/20 01:54:47;;;;;;;12.07;6.88;;;;;;;-2.59;80.17;96179.50;4992299;28;20054;-47
2021/03/20 01:57:20;;;;;;;14.20;7.97;;;;;;;-2.78;80.98;96183.44;4991032;28;20523;-46
2021/03/20 01:59:47;;;;;;;10.95;6.80;;;;;;;-2.77;81.32;96185.03;4999390;28;20466;-46
2021/03/20 02:02:14;;;;;;;11.02;7.55;;;;;;;-2.76;81.75;96178.72;5011832;28;20081;-46
2021/03/20 02:04:40;;;;;;;12.57;7.72;;;;;;;-2.58;80.97;96178.44;5011026;28;20108;-50
2021/03/20 02:07:07;;;;;;;13.82;7.55;;;;;;;-2.47;80.84;96174.09;5009638;28;20056;-47
2021/03/20 02:09:35;;;;;;;11.23;7.38;;;;;;;-2.42;79.78;96176.00;5003241;28;20058;-47
2021/03/20 02:12:20;;;;;;;11.77;7.47;;;;;;;-2.53;80.31;96176.94;4991992;28;20116;-46
2021/03/20 02:15:11;;;;;;;11.70;7.05;;;;;;;-2.49;80.73;96178.03;4992133;28;20054;-45
2021/03/20 02:18:03;;;;;;;14.90;7.80;;;;;;;-2.58;80.39;96178.44;5005349;28;20050;-46
2021/03/20 02:20:57;;;;;;;14.23;7.43;;;;;;;-2.66;80.83;96184.16;4990675;28;20077;-47
2021/03/20 02:23:42;;;;;;;13.10;7.43;;;;;;;-2.71;81.30;96189.38;4991930;28;20054;-48
2021/03/20 02:26:27;;;;;;;12.90;7.35;;;;;;;-2.65;81.72;96180.44;4991756;28;20074;-46
2021/03/20 02:29:13;;;;;;;11.88;7.00;;;;;;;-2.37;80.77;96189.34;5007114;28;20053;-49
2021/03/20 02:32:05;;;;;;;15.00;7.25;;;;;;;-2.36;80.51;96183.78;4993953;28;20467;-48
2021/03/20 02:34:49;;;;;;;10.75;6.53;;;;;;;-2.24;79.52;96188.16;5011198;28;20053;-48
2021/03/20 02:37:41;;;;;;;11.77;6.93;;;;;;;-2.25;80.01;96187.38;5014073;28;20064;-49
2021/03/20 02:40:26;;;;;;;11.75;7.18;;;;;;;-2.33;79.98;96193.09;4986074;28;20145;-47
2021/03/20 02:43:02;;;;;;;12.05;7.47;;;;;;;-2.25;80.20;96191.88;5009393;28;20057;-46
2021/03/20 02:45:31;;;;;;;12.63;7.68;;;;;;;-2.29;79.96;96191.56;5005841;28;20419;-50
2021/03/20 02:48:16;;;;;;;13.88;7.93;;;;;;;-2.32;79.93;96180.66;4991865;28;20408;-50
2021/03/20 02:50:54;;;;;;;12.20;7.32;;;;;;;-2.32;80.48;96180.66;4991461;28;20058;-47
2021/03/20 02:53:33;;;;;;;12.57;7.25;;;;;;;-2.44;81.28;96188.69;5005493;28;20169;-48
2021/03/20 02:56:05;;;;;;;13.38;7.85;;;;;;;-2.33;80.66;96177.19;5015109;28;20099;-47
2021/03/20 02:58:48;;;;;;;10.68;6.90;;;;;;;-2.32;80.15;96188.59;4997880;28;20573;-46
2021/03/20 03:01:19;;;;;;;12.77;7.10;;;;;;;-2.47;80.57;96195.31;5006700;28;20111;-49
2021/03/20 03:03:48;;;;;;;12.50;6.68;;;;;;;-2.52;80.89;96189.91;4995439;28;20058;-45
2021/03/20 03:06:27;;;;;;;12.20;7.13;;;;;;;-2.55;80.56;96192.25;4995684;28;20058;-47
2021/03/20 03:08:59;;;;;;;11.77;6.90;;;;;;;-2.43;81.56;96196.41;4997160;28;20054;-47
2021/03/20 03:11:29;;;;;;;12.73;7.13;;;;;;;-2.53;80.69;96190.16;5010317;28;20499;-50
2021/03/20 03:14:03;;;;;;;12.80;6.90;;;;;;;-2.54;80.81;96199.16;5014412;28;20462;-45
2021/03/20 03:16:51;;;;;;;10.50;6.53;;;;;;;-2.63;80.82;96191.63;5009534;28;20051;-48
2021/03/20 03:19:39;;;;;;;11.43;6.10;;;;;;;-2.51;80.60;96190.72;4999176;28;20062;-47
2021/03/20 03:22:12;;;;;;;10.52;6.13;;;;;;;-2.65;80.96;96195.53;5027583;28;20045;-47
2021/03/20 03:24:42;;;;;;;10.93;6.53;;;;;;;-2.44;80.33;96201.94;5027937;28;20123;-48
2021/03/20 03:27:13;;;;;;;9.70;5.78;;;;;;;-2.41;80.71;96204.09;5014421;28;20499;-48
2021/03/20 03:29:41;;;;;;;10.98;6.30;;;;;;;-2.33;80.23;96192.31;5014404;28;20503;-47
2021/03/20 03:32:26;;;;;;;11.48;6.25;;;;;;;-2.39;80.48;96196.72;5000935;28;20528;-49
2021/03/20 03:35:08;;;;;;;10.20;6.20;;;;;;;-2.22;80.06;96194.03;5034444;28;20073;-51
2021/03/20 03:37:52;;;;;;;11.90;5.38;;;;;;;-2.29;80.30;96193.41;5021661;28;20048;-48
2021/03/20 03:40:30;;;;;;;10.13;5.90;;;;;;;-2.37;80.76;96184.03;5002274;28;20050;-49
2021/03/20 03:42:56;;;;;;;11.43;6.22;;;;;;;-2.40;80.99;96197.78;5009874;28;20112;-49
2021/03/20 03:45:23;;;;;;;9.93;5.55;;;;;;;-2.33;80.59;96200.25;5014399;28;20061;-49
2021/03/20 03:47:50;;;;;;;8.77;5.22;;;;;;;-2.25;80.49;96203.28;5012967;28;20132;-47
2021/03/20 03:50:24;;;;;;;9.13;5.50;;;;;;;-2.30;81.72;96192.63;5011423;28;20046;-49
2021/03/20 03:52:51;;;;;;;8.52;5.45;;;;;;;-2.08;80.73;96199.78;4994802;28;20053;-46
2021/03/20 03:55:18;;;;;;;12.23;6.20;;;;;;;-2.19;81.84;96201.50;5006622;28;20458;-47
2021/03/20 03:58:03;;;;;;;11.43;6.28;;;;;;;-2.25;81.04;96200.63;4996116;28;20116;-48
2021/03/20 04:00:44;;;;;;;9.98;6.03;;;;;;;-2.37;81.11;96199.94;5012020;28;20050;-46
2021/03/20 04:03:26;;;;;;;11.20;6.45;;;;;;;-2.33;81.71;96200.25;5025604;28;20144;-47
2021/03/20 04:06:22;;;;;;;9.43;5.97;;;;;;;-2.34;81.41;96196.78;5019503;28;20053;-48
2021/03/20 04:09:07;;;;;;;9.63;5.35;;;;;;;-2.45;82.32;96203.00;5001355;28;20456;-51
2021/03/20 04:12:04;;;;;;;9.88;6.20;;;;;;;-2.42;82.14;96205.97;5010843;28;20178;-48
2021/03/20 04:14:42;;;;;;;10.20;6.40;;;;;;;-2.49;83.09;96210.63;5013890;28;20061;-46
2021/03/20 04:17:23;;;;;;;10.63;5.88;;;;;;;-2.56;83.41;96212.66;5011709;28;20060;-48
2021/03/20 04:19:53;;;;;;;11.02;6.32;;;;;;;-2.62;83.59;96211.75;4993810;28;20431;-49
2021/03/20 04:22:35;;;;;;;11.15;6.00;;;;;;;-2.66;84.22;96208.00;5003483;28;20062;-46
2021/03/20 04:25:22;;;;;;;11.45;6.68;;;;;;;-2.83;84.14;96209.81;5013592;28;20077;-45
2021/03/20 04:28:02;;;;;;;11.10;6.15;;;;;;;-2.78;85.19;96209.91;5000211;28;20065;-46
2021/03/20 04:30:33;;;;;;;12.48;6.95;;;;;;;-2.47;84.53;96215.66;4993549;28;20042;-48
2021/03/20 04:33:15;;;;;;;11.98;6.68;;;;;;;-2.76;84.63;96207.00;5007746;28;20549;-49
2021/03/20 04:35:51;;;;;;;12.20;6.60;;;;;;;-2.76;84.96;96204.34;5013502;28;20050;-48
2021/03/20 04:38:17;;;;;;;12.07;6.22;;;;;;;-2.93;85.46;96209.66;4996928;28;20055;-49
2021/03/20 04:40:52;;;;;;;11.48;7.18;;;;;;;-3.01;85.40;96215.34;5003338;28;20038;-48
2021/03/20 04:43:24;;;;;;;13.60;6.85;;;;;;;-2.94;85.84;96216.00;5010158;28;20050;-50
2021/03/20 04:45:58;;;;;;;10.65;6.70;;;;;;;-2.88;85.65;96215.84;4997852;28;20061;-49
2021/03/20 04:48:34;;;;;;;12.70;6.40;;;;;;;-2.95;85.53;96222.34;5008226;28;20121;-48
2021/03/20 04:51:07;;;;;;;13.65;6.50;;;;;;;-2.80;84.14;96227.06;4996594;28;20049;-49
2021/03/20 04:53:35;;;;;;;9.38;5.93;;;;;;;-2.90;83.35;96222.41;5002300;28;20162;-51
2021/03/20 04:56:08;;;;;;;9.90;5.45;;;;;;;-2.90;83.58;96219.78;5013099;28;20447;-45
2021/03/20 04:58:37;;;;;;;11.25;6.28;;;;;;;-2.85;84.02;96228.59;5012657;28;20131;-49
2021/03/20 05:01:26;;;;;;;9.80;6.10;;;;;;;-2.73;83.68;96231.19;4995818;28;20047;-47
2021/03/20 05:04:12;;;;;;;9.88;6.43;;;;;;;-2.69;82.47;96229.66;5008869;28;20076;-47
2021/03/20 05:06:39;;;;;;;10.48;6.43;;;;;;;-2.73;82.86;96233.00;5012346;28;20500;-47
2021/03/20 05:09:07;;;;;;;13.43;7.80;;;;;;;-2.88;82.50;96230.94;5011007;28;20046;-46
2021/03/20 05:11:43;;;;;;;10.20;5.88;;;;;;;-2.95;83.33;96235.59;5011911;28;20042;-48
2021/03/20 05:14:09;;;;;;;9.48;6.18;;;;;;;-2.86;83.27;96234.94;4993250;28;20065;-47
2021/03/20 05:16:47;;;;;;;12.35;6.82;;;;;;;-2.83;83.69;96237.13;4996104;28;20046;-47
2021/03/20 05:19:15;;;;;;;11.02;6.68;;;;;;;-2.94;83.14;96242.47;5009679;28;20046;-49
2021/03/20 05:21:45;;;;;;;10.90;6.30;;;;;;;-2.98;83.75;96236.84;4999271;28;20383;-48
2021/03/20 05:24:16;;;;;;;11.38;6.93;;;;;;;-3.00;85.10;96238.13;5012544;28;20056;-49
2021/03/20 05:26:42;;;;;;;11.13;6.22;;;;;;;-2.98;84.61;96244.81;5010868;28;20057;-46
2021/03/20 05:29:09;;;;;;;11.95;6.95;;;;;;;-2.86;84.67;96244.72;5011685;28;20503;-47
2021/03/20 05:31:38;;;;;;;14.02;7.40;;;;;;;-2.94;84.59;96240.63;5000990;28;20046;-46
2021/03/20 05:34:33;;;;;;;9.90;6.18;;;;;;;-3.01;84.03;96252.41;5012594;28;20049;-49
2021/03/20 05:37:00;;;;;;;10.38;6.43;;;;;;;-3.03;84.01;96235.97;5009525;28;20487;-48
2021/03/20 05:39:27;;;;;;;8.95;5.65;;;;;;;-3.00;83.91;96243.44;4992511;28;20093;-47
2021/03/20 05:42:12;;;;;;;10.90;5.80;;;;;;;-3.07;83.88;96248.88;4991226;28;20050;-47
2021/03/20 05:44:56;;;;;;;10.95;6.20;;;;;;;-2.89;84.26;96242.56;4992524;28;20061;-47
2021/03/20 05:47:44;;;;;;;8.23;5.45;;;;;;;-2.82;82.90;96245.88;4992357;28;20054;-49
2021/03/20 05:50:27;;;;;;;9.63;5.70;;;;;;;-2.70;82.73;96251.88;4993288;28;20045;-47
2021/03/20 05:53:02;;;;;;;6.55;4.38;;;;;;;-2.73;80.44;96255.03;5031586;28;20123;-46
2021/03/20 05:55:46;;;;;;;7.00;4.05;;;;;;;-2.76;79.49;96259.97;5019676;28;20054;-46
2021/03/20 05:58:31;;;;;;;7.93;4.65;;;;;;;-2.92;79.40;96262.38;5011900;28;20054;-50
2021/03/20 06:01:09;;;;;;;6.93;4.45;;;;;;;-2.99;80.15;96261.72;5006082;28;20061;-48
2021/03/20 06:03:59;;;;;;;6.53;4.40;;;;;;;-2.97;79.00;96261.47;5011652;28;20042;-49
2021/03/20 06:06:31;;;;;;;7.47;4.35;;;;;;;-2.78;77.89;96268.16;5011215;28;20046;-48
2021/03/20 06:09:17;;;;;;;7.90;4.30;;;;;;;-2.88;76.66;96276.75;4994014;28;20512;-47
2021/03/20 06:12:02;;;;;;;8.00;4.50;;;;;;;-2.90;75.04;96276.16;4992090;28;20133;-48
2021/03/20 06:14:40;;;;;;;8.23;5.18;;;;;;;-2.84;75.62;96279.72;4992098;28;20130;-47
2021/03/20 06:17:31;;;;;;;5.93;4.35;;;;;;;-2.85;74.92;96272.81;5003021;28;20111;-50
2021/03/20 06:20:17;;;;;;;6.88;4.65;;;;;;;-2.88;75.02;96278.59;5008704;28;20502;-48
2021/03/20 06:23:29;;;;;;;8.73;5.32;;;;;;;-2.90;75.46;96283.31;4999338;28;20411;-48
2021/03/20 06:26:13;;;;;;;7.28;4.75;;;;;;;-2.86;74.82;96282.63;5005304;28;20135;-51
2021/03/20 06:28:51;;;;;;;7.50;4.47;;;;;;;-2.83;74.70;96282.13;5010993;28;20124;-48
2021/03/20 06:31:20;;;;;;;7.53;5.00;;;;;;;-2.53;73.69;96293.50;4997558;28;20057;-48
2021/03/20 06:33:49;;;;;;;8.25;5.40;;;;;;;-2.54;73.47;96295.31;5010059;28;20073;-48
2021/03/20 06:36:30;;;;;;;8.23;5.25;;;;;;;-2.59;72.29;96301.34;5011279;28;20054;-50
2021/03/20 06:39:12;;;;;;;6.93;4.95;;;;;;;-2.77;73.97;96306.84;5005667;28;20050;-49
2021/03/20 06:41:50;;;;;;;6.80;5.25;;;;;;;-2.69;73.06;96313.63;4992819;28;20113;-48
2021/03/20 06:44:41;;;;;;;7.93;4.90;;;;;;;-2.66;73.39;96319.25;5002957;28;20057;-49
2021/03/20 06:47:19;;;;;;;7.32;5.03;;;;;;;-2.70;73.22;96312.78;5011805;28;20050;-49
2021/03/20 06:49:48;;;;;;;8.10;5.20;;;;;;;-2.79;73.14;96324.00;5010349;28;20115;-48
2021/03/20 06:52:19;;;;;;;8.52;5.78;;;;;;;-2.61;73.27;96326.47;5003183;28;20049;-49
2021/03/20 06:54:52;;;;;;;6.88;4.60;;;;;;;-2.67;72.07;96327.41;5012295;28;20050;-46
2021/03/20 06:57:18;;;;;;;8.70;5.72;;;;;;;-2.65;72.65;96323.47;5009430;28;20054;-47
2021/03/20 06:59:45;;;;;;;8.07;5.45;;;;;;;-2.76;72.48;96327.00;5008538;28;20063;-46
2021/03/20 07:02:38;;;;;;;8.23;5.65;;;;;;;-2.65;72.38;96318.19;5009305;28;20038;-46
2021/03/20 07:05:05;;;;;;;;;;;;;;;-2.66;72.54;96319.25;5012076;28;20058;-47
2021/03/20 07:07:53;;;;;;;8.52;5.30;;;;;;;-2.49;71.99;96329.06;5010636;28;19921;-47
2021/03/20 07:10:31;;;;;;;8.38;5.25;;;;;;;-2.22;71.88;96330.00;5005588;28;20113;-48
2021/03/20 07:13:19;;;;;;;7.75;4.90;;;;;;;-2.54;71.71;96334.25;5011136;28;20104;-51
2021/03/20 07:16:00;;;;;;;7.53;4.85;;;;;;;-2.38;71.85;96325.50;5011827;28;20057;-46
2021/03/20 07:18:34;;;;;;;8.25;5.20;;;;;;;-2.12;71.36;96338.13;5010988;28;20056;-47
2021/03/20 07:21:01;;;;;;;;;;;;;;;-2.08;71.37;96346.44;5008194;28;20066;-50
2021/03/20 07:23:29;;;;;;;8.63;5.32;;;;;;;-2.48;71.68;96341.25;5011516;28;19921;-47
2021/03/20 07:26:14;;;;;;;7.38;5.22;;;;;;;-2.45;73.17;96354.00;5009914;28;20093;-47
2021/03/20 07:28:49;;;;;;;7.75;5.18;;;;;;;-2.42;72.27;96345.59;5007452;28;20050;-47
2021/03/20 07:31:16;;;;;;;8.13;5.38;;;;;;;-2.73;72.15;96349.53;5010245;28;20049;-48
2021/03/20 07:33:47;;;;;;;7.07;4.97;;;;;;;-2.76;71.88;96352.66;5017745;28;20041;-48
2021/03/20 07:36:28;;;;;;;8.30;5.18;;;;;;;-2.44;71.62;96351.16;5018052;28;20116;-44
2021/03/20 07:39:25;;;;;;;8.48;5.25;;;;;;;-2.47;71.94;96353.44;5000863;28;20058;-47
2021/03/20 07:42:00;;;;;;;9.30;5.22;;;;;;;-2.26;72.11;96358.06;5013226;28;20046;-48
2021/03/20 07:44:55;;;;;;;6.45;4.50;;;;;;;-2.54;71.51;96364.19;5013214;28;20229;-48
2021/03/20 07:47:25;;;;;;;8.98;5.30;;;;;;;-2.82;71.59;96365.03;5015086;28;20065;-49
2021/03/20 07:50:17;;;;;;;8.00;5.10;;;;;;;-3.10;72.83;96371.91;4995934;28;20133;-49
2021/03/20 07:53:09;;;;;;;7.15;4.95;;;;;;;-3.03;73.24;96373.59;5007670;28;20065;-46
2021/03/20 07:55:57;;;;;;;6.67;4.93;;;;;;;-3.17;72.18;96379.16;5017686;28;20499;-50
2021/03/20 07:58:46;;;;;;;7.60;5.13;;;;;;;-3.44;73.08;96375.44;5014369;28;20060;-46
2021/03/20 08:01:18;;;;;;;8.15;4.95;;;;;;;-3.28;72.38;96385.31;4997422;28;20101;-46
2021/03/20 08:03:47;;;;;;;7.38;5.03;;;;;;;-3.23;72.38;96374.81;4995248;28;20050;-47
2021/03/20 08:06:17;;;;;;;6.82;4.95;;;;;;;-2.96;72.00;96387.50;4993521;28;20050;-48
2021/03/20 08:08:44;;;;;;;7.18;4.90;;;;;;;-2.79;71.40;96393.69;4994417;28;20053;-48
2021/03/20 08:11:26;;;;;;;8.32;4.68;;;;;;;-2.70;70.03;96394.91;4993951;28;20039;-48
2021/03/20 08:13:57;;;;;;;6.50;4.80;;;;;;;-2.59;69.52;96394.06;4994882;28;20061;-47
2021/03/20 08:16:24;;;;;;;5.97;3.95;;;;;;;-2.47;68.49;96404.63;4994379;28;20053;-48
2021/03/20 08:18:54;;;;;;;7.15;4.53;;;;;;;-1.88;66.97;96393.66;4994427;28;20134;-47
2021/03/20 08:21:55;;;;;;;6.45;4.80;;;;;;;-1.60;66.01;96397.25;4997951;28;20073;-46
2021/03/20 08:24:53;;;;;;;6.07;3.90;;;;;;;-1.72;65.02;96397.34;5014803;28;20065;-48
2021/03/20 08:27:41;;;;;;;6.13;4.03;;;;;;;-1.75;65.30;96397.84;5011796;28;20065;-49
2021/03/20 08:30:24;;;;;;;6.15;4.00;;;;;;;-1.65;65.30;96401.44;4997791;28;20504;-47
2021/03/20 08:32:56;;;;;;;6.15;4.15;;;;;;;-1.42;65.40;96403.09;5009896;28;20056;-50
2021/03/20 08:35:35;;;;;;;6.43;4.07;;;;;;;-1.73;65.34;96401.84;5012099;28;20073;-48
2021/03/20 08:38:20;;;;;;;21.90;6.25;;;;;;;-1.36;64.18;96408.47;5009645;28;20045;-49
2021/03/20 08:40:46;;;;;;;9.75;4.93;;;;;;;-1.37;63.30;96415.63;4997201;28;20046;-46
2021/03/20 08:43:34;;;;;;;6.78;4.38;;;;;;;-1.24;63.56;96415.25;5014031;28;20065;-47
2021/03/20 08:46:25;;;;;;;6.35;4.63;;;;;;;-0.52;61.99;96422.28;5000394;28;20050;-51
2021/03/20 08:48:59;;;;;;;9.35;4.82;;;;;;;-0.04;61.09;96417.13;4993802;28;20057;-48
2021/03/20 08:51:43;;;;;;;6.30;4.57;;;;;;;0.04;61.37;96414.03;5004107;28;20053;-48
2021/03/20 08:54:24;;;;;;;6.78;4.53;;;;;;;0.03;61.95;96422.25;5013270;28;20049;-50
2021/03/20 08:57:11;;;;;;;7.50;4.95;;;;;;;-0.63;66.07;96419.72;5018595;28;20046;-45
2021/03/20 08:59:53;;;;;;;6.80;4.72;;;;;;;-0.93;63.60;96420.19;5000652;28;20054;-49
2021/03/20 09:02:22;;;;;;;7.18;5.05;;;;;;;-1.19;64.25;96418.00;5008260;28;20066;-52
2021/03/20 09:05:11;;;;;;;7.93;4.63;;;;;;;-1.03;63.60;96423.53;5011519;28;20057;-48
2021/03/20 09:07:45;;;;;;;6.85;4.45;;;;;;;-1.24;61.11;96423.22;5002067;28;20089;-48
2021/03/20 09:10:45;;;;;;;6.10;4.03;;;;;;;-1.42;62.16;96423.53;5011144;28;20046;-50
2021/03/20 09:13:19;;;;;;;7.28;4.28;;;;;;;-0.97;62.93;96422.53;4973219;28;20051;-46
2021/03/20 09:15:56;;;;;;;6.82;4.68;;;;;;;-1.16;60.12;96426.53;5008468;28;20177;-47
2021/03/20 09:18:23;;;;;;;7.30;4.72;;;;;;;-1.26;60.51;96422.69;5009324;28;20111;-54
2021/03/20 09:20:54;;;;;;;7.45;4.95;;;;;;;-1.16;61.33;96429.19;5003428;28;20073;-51
2021/03/20 09:23:26;;;;;;;6.85;4.18;;;;;;;-1.10;61.02;96426.34;4993318;28;20055;-47
2021/03/20 09:25:56;;;;;;;5.97;4.25;;;;;;;-1.49;60.13;96431.66;5010233;28;20077;-46
2021/03/20 09:28:29;;;;;;;7.57;4.88;;;;;;;-1.57;61.72;96436.56;5005262;28;20456;-46
2021/03/20 09:31:16;;;;;;;9.48;5.28;;;;;;;-1.42;63.70;96428.84;5002156;28;20042;-46
2021/03/20 09:33:43;;;;;;;7.53;5.30;;;;;;;-1.21;63.39;96432.56;5011067;28;20061;-46
2021/03/20 09:36:32;;;;;;;6.38;4.50;;;;;;;-1.47;62.11;96437.50;5012138;28;20080;-43
2021/03/20 09:39:02;;;;;;;6.97;4.60;;;;;;;-1.72;62.97;96430.00;4997956;28;20132;-45
2021/03/20 09:41:28;;;;;;;6.05;4.03;;;;;;;-1.60;63.06;96429.09;5009284;28;20045;-50
2021/03/20 09:43:55;;;;;;;6.60;4.57;;;;;;;-1.44;62.99;96425.59;5011363;28;20423;-50
2021/03/20 09:46:35;;;;;;;9.73;4.78;;;;;;;-0.99;62.33;96424.63;5010772;28;20415;-50
2021/03/20 09:49:08;;;;;;;6.78;4.40;;;;;;;-0.52;59.84;96427.59;5010225;28;20131;-50
2021/03/20 09:54:32;;;;;;;6.45;4.32;;;;;;;0.26;55.26;96429.09;5010974;28;20420;-51
2021/03/20 09:57:05;;;;;;;7.40;4.60;;;;;;;-0.89;60.68;96432.72;5006421;28;20061;-48
2021/03/20 09:59:34;;;;;;;7.07;5.03;;;;;;;-1.32;63.81;96431.63;5007326;28;20053;-47
2021/03/20 10:02:25;;;;;;;6.55;4.45;;;;;;;-1.48;60.34;96432.47;5010793;28;20034;-45
2021/03/20 10:04:55;;;;;;;8.30;4.80;;;;;;;-1.20;62.45;96431.53;5010921;28;20057;-51
2021/03/20 10:07:22;;;;;;;5.72;4.28;;;;;;;-1.79;59.35;96437.28;5008038;28;20057;-52
2021/03/20 10:10:16;;;;;;;5.78;3.90;;;;;;;-1.81;59.82;96430.63;5001592;28;20503;-53
2021/03/20 10:12:46;;;;;;;5.28;3.67;;;;;;;-1.79;59.66;96425.88;5007719;28;20058;-52
2021/03/20 10:18:04;;;;;;;6.88;4.45;;;;;;;-1.82;59.80;96429.00;5024887;28;20042;-54
2021/03/20 10:20:37;;;;;;;6.28;4.15;;;;;;;-1.20;59.77;96424.38;5006440;28;20054;-53
2021/03/20 10:23:22;;;;;;;7.35;4.20;;;;;;;-0.82;61.67;96416.59;4991244;28;20058;-51
2021/03/20 10:25:55;;;;;;;7.78;5.38;;;;;;;-0.64;61.25;96426.91;5002689;28;20049;-54
2021/03/20 10:28:29;;;;;;;7.43;5.60;;;;;;;-1.25;64.48;96434.09;5011053;28;20069;-48
2021/03/20 10:31:01;;;;;;;8.88;6.25;;;;;;;-1.76;67.17;96428.03;5008029;28;20050;-48
2021/03/20 10:33:40;;;;;;;9.90;6.18;;;;;;;-1.76;68.18;96439.44;5011322;28;20076;-48
2021/03/20 10:36:16;;;;;;;8.13;5.50;;;;;;;-1.76;68.56;96438.66;5010832;28;20080;-49
2021/03/20 10:38:44;;;;;;;11.38;6.40;;;;;;;-1.52;68.22;96437.44;4993142;28;20061;-45
2021/03/20 10:41:24;;;;;;;9.30;6.05;;;;;;;-1.48;64.69;96440.41;5008745;28;20041;-53
2021/03/20 10:43:56;;;;;;;9.00;6.20;;;;;;;-1.46;65.56;96438.34;5008390;28;20073;-51
2021/03/20 10:46:35;;;;;;;8.85;6.10;;;;;;;-1.49;66.44;96444.94;5010095;28;20072;-50
2021/03/20 10:49:10;;;;;;;11.50;6.70;;;;;;;-1.19;64.77;96441.09;5010006;28;20144;-47
2021/03/20 10:51:43;;;;;;;8.70;6.13;;;;;;;-0.93;64.55;96436.13;4996986;28;20047;-48
2021/03/20 10:54:20;;;;;;;9.25;6.15;;;;;;;-0.36;64.23;96443.69;4995483;28;20096;-47
2021/03/20 10:56:49;;;;;;;10.40;6.10;;;;;;;-0.26;61.44;96441.13;5010767;28;20081;-50
2021/03/20 10:59:27;;;;;;;6.97;5.72;;;;;;;-0.28;60.51;96438.72;5022874;28;20060;-48
2021/03/20 11:01:54;;;;;;;9.10;5.65;;;;;;;0.39;58.46;96436.63;5009164;28;20061;-49
2021/03/20 11:04:30;;;;;;;6.72;5.15;;;;;;;0.43;58.83;96441.22;5010347;28;20077;-47
2021/03/20 11:07:00;;;;;;;6.90;4.95;;;;;;;-0.47;56.68;96440.91;5004987;28;20041;-55
2021/03/20 11:09:30;;;;;;;6.53;4.70;;;;;;;-0.57;56.84;96437.34;4980401;28;20050;-51
2021/03/20 11:12:03;;;;;;;7.65;5.15;;;;;;;0.04;58.10;96439.84;5010608;28;20053;-52
2021/03/20 11:14:30;;;;;;;7.32;4.88;;;;;;;-0.20;56.60;96444.66;5008145;28;20081;-52
2021/03/20 11:17:18;;;;;;;7.55;5.00;;;;;;;-0.59;58.83;96432.25;5013733;28;20076;-45
2021/03/20 11:19:45;;;;;;;6.95;5.13;;;;;;;-0.79;59.28;96448.78;5014124;28;20054;-47
2021/03/20 11:22:39;;;;;;;10.85;5.47;;;;;;;-0.53;60.47;96447.22;5000130;28;20171;-50
2021/03/20 11:25:20;;;;;;;7.35;5.00;;;;;;;-0.61;58.85;96442.38;5001839;28;20056;-52
2021/03/20 11:28:25;;;;;;;8.82;6.25;;;;;;;-0.87;60.85;96451.88;5015418;28;20130;-49
2021/03/20 11:30:56;;;;;;;8.75;5.50;;;;;;;-0.49;60.75;96453.66;5013125;28;20483;-46
2021/03/20 11:33:28;;;;;;;8.77;5.90;;;;;;;-1.14;60.62;96451.78;5005067;28;20112;-48
2021/03/20 11:36:00;;;;;;;9.27;6.00;;;;;;;-0.79;63.29;96443.47;5013414;28;20136;-50
2021/03/20 11:38:29;;;;;;;8.95;5.75;;;;;;;-0.70;61.46;96451.81;5014806;28;20054;-51
2021/03/20 11:41:02;;;;;;;8.48;5.30;;;;;;;-0.61;60.47;96452.19;5013527;28;20046;-47
2021/03/20 11:43:45;;;;;;;7.97;5.95;;;;;;;-0.33;62.03;96443.97;5013674;28;20054;-46
2021/03/20 11:46:34;;;;;;;6.50;3.80;;;;;;;-0.54;54.71;96447.47;5015491;28;20049;-52
2021/03/20 11:49:07;;;;;;;6.05;4.18;;;;;;;-0.54;55.99;96437.66;5014445;28;20459;-50
2021/03/20 11:51:37;;;;;;;;;;;;;;;-0.96;54.25;96446.19;5010039;28;20110;-48
2021/03/20 11:54:17;;;;;;;7.68;4.68;;;;;;;-1.04;56.63;96449.28;5013836;28;19921;-52
2021/03/20 11:56:53;;;;;;;6.65;4.40;;;;;;;-1.05;55.87;96445.00;5012813;28;20529;-51
2021/03/20 11:59:35;;;;;;;6.95;4.80;;;;;;;-0.90;55.04;96441.75;5012770;28;20065;-53
2021/03/20 12:02:05;;;;;;;5.97;4.65;;;;;;;-0.96;54.55;96435.56;5008242;28;20100;-49
2021/03/20 12:04:33;;;;;;;6.85;5.15;;;;;;;-1.05;55.11;96442.34;4998618;28;20132;-49
2021/03/20 12:07:33;;;;;;;7.50;4.95;;;;;;;-0.62;56.33;96430.09;5014079;28;20049;-50
2021/03/20 12:10:19;;;;;;;5.43;3.95;;;;;;;-0.91;53.55;96439.31;4984209;28;20069;-49
2021/03/20 12:12:56;;;;;;;7.35;4.15;;;;;;;-1.04;53.51;96435.16;5013962;28;20068;-52
2021/03/20 12:15:34;;;;;;;7.22;3.92;;;;;;;-1.15;54.47;96433.44;5014274;28;20053;-51
2021/03/20 12:18:11;;;;;;;6.47;3.75;;;;;;;-0.89;54.92;96423.94;5016388;28;20050;-51